createdAt,value
2017-08-30T00:01:25.445Z,92.07
2017-08-30T00:03:51.598Z,91.35
2017-08-30T00:06:17.769Z,91.36
2017-08-30T00:08:43.941Z,91.95
2017-08-30T00:11:10.109Z,92.17
2017-08-30T00:13:36.283Z,92.04
2017-08-30T00:16:02.454Z,92.03
2017-08-30T00:18:28.621Z,91.18
2017-08-30T00:20:54.788Z,90.82
2017-08-30T00:23:20.962Z,90.92
2017-08-30T00:25:47.123Z,91.97
2017-08-30T00:28:13.280Z,92.41
2017-08-30T00:30:39.440Z,92.52
2017-08-30T00:33:05.600Z,93.03
2017-08-30T00:35:31.769Z,92.99
2017-08-30T00:37:57.953Z,93.29
2017-08-30T00:40:24.111Z,93.12
2017-08-30T00:42:50.286Z,92.89
2017-08-30T00:45:16.456Z,93.29
2017-08-30T00:47:42.613Z,93.24
2017-08-30T00:50:08.786Z,93.00
2017-08-30T00:52:34.951Z,93.04
2017-08-30T00:55:01.103Z,92.87
2017-08-30T00:57:27.264Z,92.85
2017-08-30T00:59:53.449Z,92.49
2017-08-30T01:02:19.599Z,92.31
2017-08-30T01:04:45.762Z,92.03
2017-08-30T01:07:11.940Z,91.98
2017-08-30T01:09:38.120Z,92.24
2017-08-30T01:12:04.281Z,92.41
2017-08-30T01:14:30.460Z,92.55
2017-08-30T01:16:56.620Z,92.08
2017-08-30T01:19:22.800Z,92.34
2017-08-30T01:21:48.983Z,92.48
2017-08-30T01:24:15.150Z,92.19
2017-08-30T01:26:41.334Z,91.61
2017-08-30T01:29:07.491Z,91.69
2017-08-30T01:31:33.659Z,91.46
2017-08-30T01:33:59.836Z,91.00
2017-08-30T01:36:26.012Z,91.32
2017-08-30T01:38:52.194Z,91.64
2017-08-30T01:41:18.381Z,91.92
2017-08-30T01:43:44.545Z,91.95
2017-08-30T01:46:10.710Z,92.35
2017-08-30T01:48:36.893Z,92.42
2017-08-30T01:51:03.067Z,92.44
2017-08-30T01:53:29.241Z,92.56
2017-08-30T01:55:55.408Z,92.27
2017-08-30T01:58:21.561Z,92.39
2017-08-30T02:00:47.710Z,92.39
2017-08-30T02:03:13.864Z,92.76
2017-08-30T02:05:40.043Z,92.98
2017-08-30T02:08:06.209Z,92.83
2017-08-30T02:10:32.372Z,92.67
2017-08-30T02:12:58.528Z,92.62
2017-08-30T02:15:24.684Z,92.62
2017-08-30T02:17:50.852Z,92.52
2017-08-30T02:20:17.000Z,92.50
2017-08-30T02:22:43.145Z,92.63
2017-08-30T02:25:09.322Z,92.63
2017-08-30T02:27:35.491Z,92.41
2017-08-30T02:30:01.657Z,92.33
2017-08-30T02:32:27.834Z,92.21
2017-08-30T02:34:54.020Z,92.18
2017-08-30T02:37:20.176Z,92.02
2017-08-30T02:39:46.340Z,91.33
2017-08-30T02:42:12.490Z,91.59
2017-08-30T02:44:38.670Z,91.61
2017-08-30T02:47:04.841Z,91.66
2017-08-30T02:49:31.003Z,91.38
2017-08-30T02:51:57.166Z,91.32
2017-08-30T02:54:23.331Z,91.05
2017-08-30T02:56:49.497Z,91.08
2017-08-30T02:59:15.661Z,91.06
2017-08-30T03:01:41.819Z,90.84
2017-08-30T03:04:07.993Z,90.83
2017-08-30T03:06:34.149Z,90.97
2017-08-30T03:09:00.318Z,90.86
2017-08-30T03:11:26.488Z,91.03
2017-08-30T03:13:52.666Z,90.92
2017-08-30T03:16:18.832Z,90.39
2017-08-30T03:18:44.979Z,90.19
2017-08-30T03:21:11.131Z,89.95
2017-08-30T03:23:37.282Z,90.23
2017-08-30T03:26:03.448Z,89.89
2017-08-30T03:28:29.620Z,90.19
2017-08-30T03:30:55.794Z,90.35
2017-08-30T03:33:21.952Z,89.91
2017-08-30T03:35:48.128Z,89.58
2017-08-30T03:38:14.288Z,89.47
2017-08-30T03:40:40.462Z,89.76
2017-08-30T03:43:06.624Z,89.99
2017-08-30T03:45:32.784Z,90.15
2017-08-30T03:47:58.963Z,89.75
2017-08-30T03:50:25.143Z,89.08
2017-08-30T03:52:51.335Z,89.86
2017-08-30T03:55:17.506Z,89.91
2017-08-30T03:57:43.678Z,90.54
2017-08-30T04:00:10.911Z,90.62
2017-08-30T04:02:37.089Z,90.48
2017-08-30T04:05:03.234Z,90.28
2017-08-30T04:07:29.403Z,90.38
2017-08-30T04:09:55.567Z,90.78
2017-08-30T04:12:21.737Z,91.08
2017-08-30T04:14:48.841Z,91.23
2017-08-30T04:17:15.013Z,91.25
2017-08-30T04:19:41.174Z,91.25
2017-08-30T04:22:07.341Z,90.79
2017-08-30T04:24:33.519Z,90.87
2017-08-30T04:26:59.693Z,90.88
2017-08-30T04:29:25.867Z,90.59
2017-08-30T04:31:52.027Z,90.83
2017-08-30T04:34:18.219Z,87.26
2017-08-30T04:36:44.396Z,86.54
2017-08-30T04:39:10.565Z,81.25
2017-08-30T04:41:36.733Z,79.30
2017-08-30T04:44:02.900Z,77.83
2017-08-30T04:46:29.085Z,75.16
2017-08-30T04:48:55.256Z,75.31
2017-08-30T04:51:21.406Z,73.54
2017-08-30T04:53:47.569Z,72.09
2017-08-30T04:56:13.733Z,70.70
2017-08-30T04:58:39.888Z,69.68
2017-08-30T05:01:06.040Z,69.94
2017-08-30T05:03:32.195Z,69.53
2017-08-30T05:05:58.358Z,68.49
2017-08-30T05:08:24.540Z,67.46
2017-08-30T05:10:50.698Z,69.03
2017-08-30T05:13:16.860Z,67.16
2017-08-30T05:15:43.011Z,66.69
2017-08-30T05:18:09.200Z,68.00
2017-08-30T05:20:35.375Z,66.18
2017-08-30T05:23:01.541Z,63.36
2017-08-30T05:25:27.697Z,60.83
2017-08-30T05:27:53.865Z,61.81
2017-08-30T05:30:20.051Z,59.60
2017-08-30T05:32:46.198Z,58.77
2017-08-30T05:35:12.367Z,60.28
2017-08-30T05:37:38.533Z,63.91
2017-08-30T05:40:04.707Z,64.44
2017-08-30T05:42:30.864Z,68.23
2017-08-30T05:44:57.036Z,66.61
2017-08-30T05:47:23.192Z,66.42
2017-08-30T05:49:49.341Z,66.14
2017-08-30T05:52:15.498Z,66.07
2017-08-30T05:54:41.647Z,65.32
2017-08-30T05:57:07.805Z,64.85
2017-08-30T05:59:33.973Z,66.48
2017-08-30T06:02:00.134Z,66.27
2017-08-30T06:04:26.316Z,64.34
2017-08-30T06:06:52.482Z,63.65
2017-08-30T06:09:18.648Z,63.42
2017-08-30T06:11:44.811Z,64.34
2017-08-30T06:14:10.963Z,63.07
2017-08-30T06:16:37.126Z,60.21
2017-08-30T06:19:03.296Z,63.54
2017-08-30T06:21:29.446Z,60.73
2017-08-30T06:23:55.610Z,59.24
2017-08-30T06:26:21.772Z,58.58
2017-08-30T06:28:47.943Z,57.18
2017-08-30T06:31:14.094Z,56.37
2017-08-30T06:33:40.267Z,57.03
2017-08-30T06:36:06.444Z,57.95
2017-08-30T06:38:32.592Z,57.13
2017-08-30T06:40:58.738Z,55.24
2017-08-30T06:43:24.886Z,54.56
2017-08-30T06:45:51.055Z,53.25
2017-08-30T06:48:17.229Z,52.85
2017-08-30T06:50:43.467Z,52.34
2017-08-30T06:53:09.616Z,52.42
2017-08-30T06:55:35.789Z,49.63
2017-08-30T06:58:01.948Z,48.62
2017-08-30T07:00:28.104Z,49.96
2017-08-30T07:02:54.255Z,48.99
2017-08-30T07:05:20.419Z,49.02
2017-08-30T07:07:46.566Z,49.86
2017-08-30T07:10:12.729Z,48.80
2017-08-30T07:12:38.899Z,48.83
2017-08-30T07:15:05.053Z,48.36
2017-08-30T07:17:31.202Z,48.63
2017-08-30T07:19:57.359Z,47.66
2017-08-30T07:22:23.530Z,49.70
2017-08-30T07:24:49.684Z,47.21
2017-08-30T07:27:15.856Z,48.89
2017-08-30T07:29:42.012Z,49.60
2017-08-30T07:32:08.195Z,50.43
2017-08-30T07:34:34.362Z,51.28
2017-08-30T07:37:00.657Z,50.29
2017-08-30T07:39:26.819Z,51.37
2017-08-30T07:41:52.962Z,50.11
2017-08-30T07:44:19.147Z,48.33
2017-08-30T07:46:45.328Z,46.75
2017-08-30T07:49:11.528Z,46.44
2017-08-30T07:51:37.703Z,45.83
2017-08-30T07:54:03.867Z,47.68
2017-08-30T07:56:30.032Z,48.42
2017-08-30T07:58:56.210Z,45.84
2017-08-30T08:01:22.386Z,46.51
2017-08-30T08:03:48.538Z,45.20
2017-08-30T08:06:14.709Z,46.08
2017-08-30T08:08:40.883Z,44.88
2017-08-30T08:11:07.040Z,44.43
2017-08-30T08:13:33.211Z,44.03
2017-08-30T08:15:59.378Z,43.03
2017-08-30T08:18:25.548Z,42.85
2017-08-30T08:20:51.722Z,40.25
2017-08-30T08:23:17.871Z,42.24
2017-08-30T08:25:44.022Z,43.85
2017-08-30T08:28:10.189Z,46.35
2017-08-30T08:30:36.380Z,47.63
2017-08-30T08:33:02.540Z,46.26
2017-08-30T08:35:28.686Z,46.02
2017-08-30T08:37:54.860Z,45.66
2017-08-30T08:40:21.019Z,46.27
2017-08-30T08:42:47.168Z,46.57
2017-08-30T08:45:13.346Z,46.21
2017-08-30T08:47:39.532Z,42.43
2017-08-30T08:50:05.698Z,41.65
2017-08-30T08:52:31.859Z,40.86
2017-08-30T08:54:58.004Z,42.46
2017-08-30T08:57:24.155Z,43.75
2017-08-30T08:59:50.324Z,43.55
2017-08-30T09:02:16.573Z,44.99
2017-08-30T09:04:42.733Z,42.12
2017-08-30T09:07:08.909Z,43.58
2017-08-30T09:09:35.064Z,42.92
2017-08-30T09:12:01.239Z,43.24
2017-08-30T09:14:27.385Z,44.56
2017-08-30T09:16:53.550Z,45.00
2017-08-30T09:19:19.699Z,43.50
2017-08-30T09:21:45.877Z,43.36
2017-08-30T09:24:12.036Z,37.98
2017-08-30T09:26:38.213Z,36.95
2017-08-30T09:29:04.376Z,35.76
2017-08-30T09:31:30.546Z,37.07
2017-08-30T09:33:56.699Z,39.21
2017-08-30T09:36:22.864Z,42.09
2017-08-30T09:38:49.051Z,40.23
2017-08-30T09:41:15.203Z,37.64
2017-08-30T09:43:41.365Z,34.86
2017-08-30T09:46:07.523Z,35.46
2017-08-30T09:48:33.687Z,36.11
2017-08-30T09:50:59.866Z,34.78
2017-08-30T09:53:26.012Z,33.13
2017-08-30T09:55:52.179Z,33.07
2017-08-30T09:58:18.392Z,33.22
2017-08-30T10:00:44.542Z,32.44
2017-08-30T10:03:10.723Z,34.60
2017-08-30T10:05:36.914Z,33.03
2017-08-30T10:08:03.073Z,33.47
2017-08-30T10:10:29.230Z,33.14
2017-08-30T10:12:55.407Z,32.97
2017-08-30T10:15:21.587Z,33.55
2017-08-30T10:17:47.745Z,32.70
2017-08-30T10:20:13.893Z,32.29
2017-08-30T10:22:40.057Z,32.55
2017-08-30T10:25:06.216Z,31.52
2017-08-30T10:27:32.390Z,36.03
2017-08-30T10:29:58.549Z,36.33
2017-08-30T10:32:24.718Z,34.37
2017-08-30T10:34:50.878Z,37.62
2017-08-30T10:37:17.044Z,33.97
2017-08-30T10:39:43.218Z,31.81
2017-08-30T10:42:09.381Z,32.88
2017-08-30T10:44:35.545Z,31.22
2017-08-30T10:47:01.705Z,32.30
2017-08-30T10:49:27.859Z,31.28
2017-08-30T10:51:54.020Z,31.60
2017-08-30T10:54:20.195Z,30.76
2017-08-30T10:56:46.366Z,31.22
2017-08-30T10:59:12.535Z,32.09
2017-08-30T11:01:38.686Z,30.51
2017-08-30T11:04:04.838Z,31.98
2017-08-30T11:06:30.983Z,33.51
2017-08-30T11:08:57.139Z,35.88
2017-08-30T11:11:23.297Z,36.07
2017-08-30T11:13:49.456Z,37.14
2017-08-30T11:16:15.617Z,35.54
2017-08-30T11:18:41.788Z,35.18
2017-08-30T11:21:07.951Z,33.33
2017-08-30T11:23:38.052Z,32.12
2017-08-30T11:26:04.224Z,31.12
2017-08-30T11:28:30.391Z,32.43
2017-08-30T11:30:56.556Z,29.91
2017-08-30T11:33:22.728Z,29.92
2017-08-30T11:35:48.898Z,33.21
2017-08-30T11:38:15.062Z,32.29
2017-08-30T11:40:41.229Z,34.41
2017-08-30T11:43:07.393Z,36.05
2017-08-30T11:45:33.549Z,37.42
2017-08-30T11:47:59.706Z,37.78
2017-08-30T11:50:25.876Z,38.74
2017-08-30T11:52:52.045Z,39.47
2017-08-30T11:55:18.210Z,41.16
2017-08-30T11:57:44.371Z,40.67
2017-08-30T12:00:10.552Z,39.32
2017-08-30T12:02:36.711Z,38.45
2017-08-30T12:05:02.877Z,34.15
2017-08-30T12:07:29.040Z,33.07
2017-08-30T12:09:55.207Z,32.80
2017-08-30T12:12:21.364Z,32.94
2017-08-30T12:14:47.547Z,33.07
2017-08-30T12:17:13.711Z,31.17
2017-08-30T12:19:39.869Z,30.57
2017-08-30T12:22:06.028Z,30.22
2017-08-30T12:24:32.190Z,30.38
2017-08-30T12:26:58.410Z,29.40
2017-08-30T12:29:24.563Z,29.11
2017-08-30T12:31:50.714Z,29.27
2017-08-30T12:34:16.877Z,28.87
2017-08-30T12:36:43.021Z,29.03
2017-08-30T12:39:09.178Z,29.18
2017-08-30T12:41:35.352Z,29.86
2017-08-30T12:44:01.541Z,29.28
2017-08-30T12:46:27.704Z,28.40
2017-08-30T12:48:53.877Z,28.69
2017-08-30T12:51:20.048Z,27.14
2017-08-30T12:53:46.213Z,27.01
2017-08-30T12:56:12.382Z,28.09
2017-08-30T12:58:38.539Z,26.61
2017-08-30T13:01:04.698Z,29.18
2017-08-30T13:03:30.896Z,28.85
2017-08-30T13:05:57.059Z,29.97
2017-08-30T13:08:23.216Z,29.80
2017-08-30T13:10:49.401Z,29.08
2017-08-30T13:13:15.586Z,30.92
2017-08-30T13:15:41.747Z,30.75
2017-08-30T13:18:07.902Z,31.83
2017-08-30T13:20:34.076Z,30.69
2017-08-30T13:23:00.237Z,31.29
2017-08-30T13:25:26.448Z,31.30
2017-08-30T13:27:52.608Z,31.71
2017-08-30T13:30:18.774Z,30.21
2017-08-30T13:32:44.971Z,31.59
2017-08-30T13:35:11.147Z,31.46
2017-08-30T13:37:37.295Z,32.88
2017-08-30T13:40:03.455Z,34.55
2017-08-30T13:42:29.598Z,35.74
2017-08-30T13:44:55.763Z,33.81
2017-08-30T13:47:21.939Z,31.68
2017-08-30T13:49:48.119Z,30.31
2017-08-30T13:52:14.275Z,30.34
2017-08-30T13:54:40.455Z,29.77
2017-08-30T13:57:06.626Z,29.67
2017-08-30T13:59:32.796Z,31.42
2017-08-30T14:01:58.964Z,32.09
2017-08-30T14:04:25.132Z,31.69
2017-08-30T14:06:51.328Z,31.22
2017-08-30T14:09:17.523Z,31.81
2017-08-30T14:11:43.696Z,32.12
2017-08-30T14:14:09.857Z,32.78
2017-08-30T14:16:36.024Z,31.88
2017-08-30T14:19:02.183Z,32.75
2017-08-30T14:21:28.352Z,32.42
2017-08-30T14:23:54.535Z,31.77
2017-08-30T14:26:20.738Z,30.63
2017-08-30T14:28:46.901Z,30.27
2017-08-30T14:31:13.053Z,28.28
2017-08-30T14:33:39.231Z,28.75
2017-08-30T14:36:05.407Z,30.41
2017-08-30T14:38:31.562Z,31.40
2017-08-30T14:40:57.731Z,31.99
2017-08-30T14:43:23.900Z,34.16
2017-08-30T14:45:50.070Z,35.98
2017-08-30T14:48:16.210Z,34.41
2017-08-30T14:50:42.382Z,31.75
2017-08-30T14:53:08.546Z,31.21
2017-08-30T14:55:34.740Z,32.97
2017-08-30T14:58:00.921Z,32.39
2017-08-30T15:00:27.083Z,33.04
2017-08-30T15:02:53.261Z,31.62
2017-08-30T15:05:19.439Z,31.76
2017-08-30T15:07:45.610Z,30.92
2017-08-30T15:10:11.763Z,30.38
2017-08-30T15:12:37.943Z,29.92
2017-08-30T15:15:04.127Z,30.22
2017-08-30T15:17:30.308Z,31.22
2017-08-30T15:19:56.487Z,31.44
2017-08-30T15:22:22.664Z,30.68
2017-08-30T15:24:48.834Z,31.39
2017-08-30T15:27:15.001Z,31.69
2017-08-30T15:29:41.161Z,31.17
2017-08-30T15:32:07.324Z,31.82
2017-08-30T15:34:33.490Z,33.24
2017-08-30T15:36:59.673Z,34.67
2017-08-30T15:39:25.851Z,35.17
2017-08-30T15:41:52.036Z,34.32
2017-08-30T15:44:18.210Z,35.47
2017-08-30T15:46:44.387Z,37.08
2017-08-30T15:49:10.562Z,37.23
2017-08-30T15:51:36.725Z,37.28
2017-08-30T15:54:02.881Z,38.01
2017-08-30T15:56:29.031Z,37.48
2017-08-30T15:58:55.214Z,36.79
2017-08-30T16:01:21.383Z,36.98
2017-08-30T16:03:47.596Z,37.20
2017-08-30T16:06:13.775Z,37.86
2017-08-30T16:08:39.946Z,39.85
2017-08-30T16:11:06.146Z,39.11
2017-08-30T16:13:32.323Z,40.09
2017-08-30T16:15:58.499Z,39.10
2017-08-30T16:18:24.672Z,39.44
2017-08-30T16:20:50.831Z,40.88
2017-08-30T16:23:16.986Z,41.20
2017-08-30T16:25:43.158Z,41.70
2017-08-30T16:28:09.324Z,42.33
2017-08-30T16:30:35.504Z,42.39
2017-08-30T16:33:01.676Z,43.10
2017-08-30T16:35:27.837Z,44.01
2017-08-30T16:37:53.992Z,45.24
2017-08-30T16:40:20.169Z,46.06
2017-08-30T16:42:46.342Z,46.28
2017-08-30T16:45:12.514Z,47.44
2017-08-30T16:47:38.678Z,47.71
2017-08-30T16:50:04.849Z,48.59
2017-08-30T16:52:31.028Z,48.91
2017-08-30T16:54:57.206Z,49.43
2017-08-30T16:57:23.440Z,49.57
2017-08-30T16:59:52.032Z,50.35
2017-08-30T17:02:19.232Z,50.65
2017-08-30T17:04:47.119Z,51.08
2017-08-30T17:07:13.382Z,51.14
2017-08-30T17:09:39.543Z,51.75
2017-08-30T17:12:05.729Z,52.03
2017-08-30T17:14:31.915Z,52.06
2017-08-30T17:16:58.084Z,52.41
2017-08-30T17:19:24.242Z,53.00
2017-08-30T17:21:50.403Z,53.25
2017-08-30T17:24:16.585Z,53.79
2017-08-30T17:26:42.759Z,54.03
2017-08-30T17:29:08.925Z,54.24
2017-08-30T17:31:35.089Z,55.72
2017-08-30T17:34:01.252Z,56.63
2017-08-30T17:36:27.422Z,57.41
2017-08-30T17:38:53.605Z,58.08
2017-08-30T17:41:19.768Z,58.42
2017-08-30T17:43:45.946Z,59.40
2017-08-30T17:46:12.138Z,60.14
2017-08-30T17:48:38.349Z,59.92
2017-08-30T17:51:04.513Z,60.21
2017-08-30T17:53:30.680Z,60.60
2017-08-30T17:55:56.844Z,61.38
2017-08-30T17:58:23.016Z,61.60
2017-08-30T18:00:49.185Z,62.23
2017-08-30T18:03:15.363Z,62.72
2017-08-30T18:05:41.527Z,62.81
2017-08-30T18:08:07.716Z,63.31
2017-08-30T18:10:33.883Z,63.56
2017-08-30T18:13:00.061Z,63.93
2017-08-30T18:15:26.218Z,64.80
2017-08-30T18:17:52.395Z,65.45
2017-08-30T18:20:18.590Z,65.85
2017-08-30T18:22:44.775Z,65.39
2017-08-30T18:25:10.949Z,65.22
2017-08-30T18:27:37.122Z,65.88
2017-08-30T18:30:03.311Z,65.92
2017-08-30T18:32:29.478Z,65.93
2017-08-30T18:34:55.650Z,66.05
2017-08-30T18:37:21.838Z,66.82
2017-08-30T18:39:48.014Z,66.43
2017-08-30T18:42:14.201Z,66.84
2017-08-30T18:44:40.374Z,66.75
2017-08-30T18:47:06.592Z,67.16
2017-08-30T18:49:32.762Z,68.52
2017-08-30T18:51:58.942Z,70.35
2017-08-30T18:54:25.118Z,70.64
2017-08-30T18:56:51.288Z,70.11
2017-08-30T18:59:17.441Z,70.59
2017-08-30T19:01:43.618Z,71.01
2017-08-30T19:04:09.813Z,70.88
2017-08-30T19:06:35.989Z,71.40
2017-08-30T19:09:02.142Z,72.16
2017-08-30T19:11:28.303Z,72.74
2017-08-30T19:13:54.489Z,72.58
2017-08-30T19:16:20.673Z,72.63
2017-08-30T19:18:47.057Z,72.82
2017-08-30T19:21:13.218Z,72.97
2017-08-30T19:23:39.380Z,72.84
2017-08-30T19:26:05.535Z,73.12
2017-08-30T19:28:31.687Z,73.28
2017-08-30T19:30:57.861Z,73.50
2017-08-30T19:33:24.039Z,73.95
2017-08-30T19:35:50.203Z,74.27
2017-08-30T19:38:16.357Z,74.85
2017-08-30T19:40:42.669Z,74.75
2017-08-30T19:43:08.849Z,75.57
2017-08-30T19:45:35.013Z,76.09
2017-08-30T19:48:01.171Z,75.71
2017-08-30T19:50:27.332Z,76.07
2017-08-30T19:52:53.508Z,76.01
2017-08-30T19:55:19.682Z,76.19
2017-08-30T19:57:45.839Z,76.23
2017-08-30T20:00:12.014Z,76.79
2017-08-30T20:02:38.166Z,77.70
2017-08-30T20:05:04.341Z,77.34
2017-08-30T20:07:30.516Z,77.12
2017-08-30T20:09:56.681Z,77.05
2017-08-30T20:12:22.836Z,77.16
2017-08-30T20:14:48.992Z,77.03
2017-08-30T20:17:15.165Z,77.09
2017-08-30T20:19:41.330Z,77.07
2017-08-30T20:22:07.483Z,77.46
2017-08-30T20:24:33.655Z,77.93
2017-08-30T20:26:59.829Z,78.01
2017-08-30T20:29:26.015Z,78.49
2017-08-30T20:31:52.178Z,79.18
2017-08-30T20:34:18.363Z,79.35
2017-08-30T20:36:44.547Z,79.80
2017-08-30T20:39:10.706Z,79.16
2017-08-30T20:41:36.889Z,79.65
2017-08-30T20:44:03.070Z,79.28
2017-08-30T20:46:29.257Z,79.15
2017-08-30T20:48:55.438Z,78.92
2017-08-30T20:51:21.615Z,79.48
2017-08-30T20:53:47.880Z,79.42
2017-08-30T20:56:14.115Z,79.72
2017-08-30T20:58:40.318Z,79.70
2017-08-30T21:01:06.543Z,79.73
2017-08-30T21:03:32.806Z,80.03
2017-08-30T21:05:59.016Z,79.83
2017-08-30T21:08:25.254Z,80.85
2017-08-30T21:10:51.468Z,80.57
2017-08-30T21:13:17.739Z,80.95
2017-08-30T21:15:43.925Z,80.10
2017-08-30T21:18:10.187Z,80.21
2017-08-30T21:20:36.441Z,80.16
2017-08-30T21:23:02.641Z,80.29
2017-08-30T21:25:28.865Z,79.98
2017-08-30T21:27:55.098Z,80.27
2017-08-30T21:30:21.320Z,80.32
2017-08-30T21:32:47.562Z,80.12
2017-08-30T21:35:13.788Z,80.19
2017-08-30T21:37:40.013Z,80.74
2017-08-30T21:40:06.245Z,81.33
2017-08-30T21:42:32.471Z,81.50
2017-08-30T21:44:58.740Z,81.27
2017-08-30T21:47:24.931Z,81.27
2017-08-30T21:49:51.156Z,81.25
2017-08-30T21:52:17.400Z,81.33
2017-08-30T21:54:43.630Z,81.40
2017-08-30T21:57:09.815Z,81.84
2017-08-30T21:59:36.104Z,81.86
2017-08-30T22:02:02.324Z,81.87
2017-08-30T22:04:28.522Z,82.04
2017-08-30T22:06:54.760Z,82.13
2017-08-30T22:09:21.000Z,82.51
2017-08-30T22:11:47.226Z,82.76
2017-08-30T22:14:13.479Z,82.77
2017-08-30T22:16:39.688Z,82.62
2017-08-30T22:19:05.918Z,82.85
2017-08-30T22:21:32.131Z,83.02
2017-08-30T22:23:58.302Z,83.35
2017-08-30T22:26:24.514Z,83.27
2017-08-30T22:28:50.725Z,83.33
2017-08-30T22:31:16.982Z,83.09
2017-08-30T22:33:43.203Z,83.39
2017-08-30T22:36:09.428Z,84.02
2017-08-30T22:38:35.630Z,83.71
2017-08-30T22:41:01.867Z,83.72
2017-08-30T22:43:28.103Z,83.63
2017-08-30T22:45:54.341Z,83.78
2017-08-30T22:48:20.575Z,83.85
2017-08-30T22:50:46.792Z,84.34
2017-08-30T22:53:13.020Z,84.84
2017-08-30T22:55:39.269Z,85.20
2017-08-30T22:58:05.506Z,85.33
2017-08-30T23:00:31.781Z,85.23
2017-08-30T23:02:58.065Z,85.41
2017-08-30T23:05:24.291Z,85.17
2017-08-30T23:07:50.511Z,85.36
2017-08-30T23:10:16.742Z,84.87
2017-08-30T23:12:42.973Z,85.14
2017-08-30T23:15:09.193Z,85.36
2017-08-30T23:17:35.417Z,84.92
2017-08-30T23:20:01.655Z,84.61
2017-08-30T23:22:27.887Z,83.57
2017-08-30T23:24:54.119Z,84.72
2017-08-30T23:27:20.547Z,84.26
2017-08-30T23:29:46.816Z,84.08
2017-08-30T23:32:13.004Z,84.46
2017-08-30T23:34:39.255Z,85.02
2017-08-30T23:37:05.459Z,84.87
2017-08-30T23:39:31.689Z,85.09
2017-08-30T23:41:57.924Z,84.93
2017-08-30T23:44:24.143Z,84.71
2017-08-30T23:46:50.389Z,85.76
2017-08-30T23:49:16.617Z,85.81
2017-08-30T23:51:42.842Z,85.06
2017-08-30T23:54:09.067Z,84.58
2017-08-30T23:56:35.296Z,86.01
2017-08-30T23:59:01.575Z,85.99
